Terminal Aerodrome Forecast
Issued by NWS

Home | Current Version | Previous Version | Text Only | Print | Product List | Glossary On
Versions: 1 2 3 4 5 6 7 8 9 10 11 12 13 14 15 16 17 18 19 20 21 22 23 24 25 26 27 28 29
000
FTUS43 KICT 230520
TAFSLN
TAF
KSLN 230520Z 2306/2406 14012KT P6SM OVC025
     FM230900 13006KT 5SM -DZ BR SCT006 BKN015
      TEMPO 2311/2315 2SM -DZ BR BKN006
     FM231600 14015KT 5SM -SHRA VCTS FEW003 SCT008 OVC010CB
     FM232300 14015KT P6SM BKN015
     FM240100 14012KT 4SM BR SCT004 BKN007=

USA.gov is the U.S. government's official web portal to all federal, state and local government web resources and services.